sensor_id;sensor_type;location;lat;lon;timestamp;pressure;altitude;pressure_sealevel;temperature;humidity
68197;BME280;55019;49.382;11.358;2023-07-20T00:00:29;96372.16;;;17.57;100.00
68197;BME280;55019;49.382;11.358;2023-07-20T00:03:10;96368.31;;;17.66;100.00
68197;BME280;55019;49.382;11.358;2023-07-20T00:05:36;96362.53;;;17.58;100.00
68197;BME280;55019;49.382;11.358;2023-07-20T00:08:01;96373.13;;;17.69;100.00
68197;BME280;55019;49.382;11.358;2023-07-20T00:10:27;96359.41;;;17.74;100.00
68197;BME280;55019;49.382;11.358;2023-07-20T00:12:53;96359.34;;;17.80;100.00
68197;BME280;55019;49.382;11.358;2023-07-20T00:15:18;96358.59;;;17.73;100.00
68197;BME280;55019;49.382;11.358;2023-07-20T00:17:44;96365.59;;;17.79;100.00
68197;BME280;55019;49.382;11.358;2023-07-20T00:20:10;96366.03;;;17.76;100.00
68197;BME280;55019;49.382;11.358;2023-07-20T00:22:36;96369.88;;;17.43;100.00
68197;BME280;55019;49.382;11.358;2023-07-20T00:25:02;96369.63;;;17.44;100.00
68197;BME280;55019;49.382;11.358;2023-07-20T00:27:28;96356.91;;;17.54;100.00
68197;BME280;55019;49.382;11.358;2023-07-20T00:29:54;96356.63;;;17.69;100.00
68197;BME280;55019;49.382;11.358;2023-07-20T00:32:19;96369.31;;;17.65;100.00
68197;BME280;55019;49.382;11.358;2023-07-20T00:34:45;96367.03;;;17.75;100.00
68197;BME280;55019;49.382;11.358;2023-07-20T00:37:10;96375.50;;;17.71;100.00
68197;BME280;55019;49.382;11.358;2023-07-20T00:39:37;96378.28;;;17.76;100.00
68197;BME280;55019;49.382;11.358;2023-07-20T00:42:03;96372.34;;;17.62;100.00
68197;BME280;55019;49.382;11.358;2023-07-20T00:44:29;96376.56;;;17.63;100.00
68197;BME280;55019;49.382;11.358;2023-07-20T00:46:54;96373.19;;;17.56;100.00
68197;BME280;55019;49.382;11.358;2023-07-20T00:49:20;96366.78;;;17.52;100.00
68197;BME280;55019;49.382;11.358;2023-07-20T00:51:48;96359.22;;;17.69;100.00
68197;BME280;55019;49.382;11.358;2023-07-20T00:54:15;96350.19;;;17.71;100.00
68197;BME280;55019;49.382;11.358;2023-07-20T00:56:42;96360.47;;;17.66;100.00
68197;BME280;55019;49.382;11.358;2023-07-20T00:59:09;96359.03;;;17.70;100.00
68197;BME280;55019;49.382;11.358;2023-07-20T01:01:35;96357.22;;;17.40;100.00
68197;BME280;55019;49.382;11.358;2023-07-20T01:04:01;96353.47;;;17.60;100.00
68197;BME280;55019;49.382;11.358;2023-07-20T01:06:38;96342.50;;;17.76;100.00
68197;BME280;55019;49.382;11.358;2023-07-20T01:09:21;96350.50;;;17.50;100.00
68197;BME280;55019;49.382;11.358;2023-07-20T01:14:25;96352.47;;;16.74;100.00
68197;BME280;55019;49.382;11.358;2023-07-20T01:16:51;96340.28;;;16.68;100.00
68197;BME280;55019;49.382;11.358;2023-07-20T01:19:18;96349.53;;;16.51;100.00
68197;BME280;55019;49.382;11.358;2023-07-20T01:24:45;96359.31;;;16.75;100.00
68197;BME280;55019;49.382;11.358;2023-07-20T01:27:32;96349.00;;;16.93;100.00
68197;BME280;55019;49.382;11.358;2023-07-20T01:32:44;96357.81;;;16.92;100.00
68197;BME280;55019;49.382;11.358;2023-07-20T01:35:11;96367.03;;;17.01;100.00
68197;BME280;55019;49.382;11.358;2023-07-20T01:37:42;96364.16;;;17.09;100.00
68197;BME280;55019;49.382;11.358;2023-07-20T01:40:09;96359.19;;;17.01;100.00
68197;BME280;55019;49.382;11.358;2023-07-20T01:42:35;96360.78;;;17.02;100.00
68197;BME280;55019;49.382;11.358;2023-07-20T01:45:01;96358.66;;;16.86;100.00
68197;BME280;55019;49.382;11.358;2023-07-20T01:47:26;96345.19;;;16.89;100.00
68197;BME280;55019;49.382;11.358;2023-07-20T01:49:52;96346.53;;;17.04;100.00
68197;BME280;55019;49.382;11.358;2023-07-20T01:52:18;96346.91;;;17.08;100.00
68197;BME280;55019;49.382;11.358;2023-07-20T01:54:43;96358.56;;;17.12;100.00
68197;BME280;55019;49.382;11.358;2023-07-20T01:57:09;96362.13;;;17.17;100.00
68197;BME280;55019;49.382;11.358;2023-07-20T01:59:35;96353.78;;;16.96;100.00
68197;BME280;55019;49.382;11.358;2023-07-20T02:02:00;96369.19;;;17.17;100.00
68197;BME280;55019;49.382;11.358;2023-07-20T02:04:26;96361.34;;;17.17;100.00
68197;BME280;55019;49.382;11.358;2023-07-20T02:06:52;96361.25;;;17.30;100.00
68197;BME280;55019;49.382;11.358;2023-07-20T02:09:17;96353.84;;;17.27;100.00
68197;BME280;55019;49.382;11.358;2023-07-20T02:11:43;96362.94;;;17.18;100.00
68197;BME280;55019;49.382;11.358;2023-07-20T02:14:09;96370.09;;;16.85;100.00
68197;BME280;55019;49.382;11.358;2023-07-20T02:16:34;96369.09;;;16.86;100.00
68197;BME280;55019;49.382;11.358;2023-07-20T02:19:00;96368.19;;;17.05;100.00
68197;BME280;55019;49.382;11.358;2023-07-20T02:21:26;96365.53;;;16.74;100.00
68197;BME280;55019;49.382;11.358;2023-07-20T02:23:51;96375.78;;;16.69;100.00
68197;BME280;55019;49.382;11.358;2023-07-20T02:26:17;96383.75;;;16.80;100.00
68197;BME280;55019;49.382;11.358;2023-07-20T02:28:43;96387.19;;;16.74;100.00
68197;BME280;55019;49.382;11.358;2023-07-20T02:31:08;96378.94;;;16.84;100.00
68197;BME280;55019;49.382;11.358;2023-07-20T02:33:34;96381.59;;;16.71;100.00
68197;BME280;55019;49.382;11.358;2023-07-20T02:36:00;96369.97;;;16.60;100.00
68197;BME280;55019;49.382;11.358;2023-07-20T02:38:25;96370.38;;;16.31;100.00
68197;BME280;55019;49.382;11.358;2023-07-20T02:40:51;96378.03;;;16.46;100.00
68197;BME280;55019;49.382;11.358;2023-07-20T02:43:17;96387.22;;;16.55;100.00
68197;BME280;55019;49.382;11.358;2023-07-20T02:45:43;96390.47;;;16.31;100.00
68197;BME280;55019;49.382;11.358;2023-07-20T02:48:09;96383.06;;;16.28;100.00
68197;BME280;55019;49.382;11.358;2023-07-20T02:50:35;96385.66;;;16.28;100.00
68197;BME280;55019;49.382;11.358;2023-07-20T02:53:01;96387.66;;;16.26;100.00
68197;BME280;55019;49.382;11.358;2023-07-20T02:55:27;96384.47;;;16.24;100.00
68197;BME280;55019;49.382;11.358;2023-07-20T02:57:52;96393.31;;;16.10;100.00
68197;BME280;55019;49.382;11.358;2023-07-20T03:00:18;96392.09;;;16.19;100.00
68197;BME280;55019;49.382;11.358;2023-07-20T03:02:46;96386.69;;;16.33;100.00
68197;BME280;55019;49.382;11.358;2023-07-20T03:05:15;96389.28;;;16.46;100.00
68197;BME280;55019;49.382;11.358;2023-07-20T03:07:42;96393.25;;;16.55;100.00
68197;BME280;55019;49.382;11.358;2023-07-20T03:10:09;96394.28;;;16.61;100.00
68197;BME280;55019;49.382;11.358;2023-07-20T03:12:35;96392.63;;;16.66;100.00
68197;BME280;55019;49.382;11.358;2023-07-20T03:15:02;96395.31;;;16.40;100.00
68197;BME280;55019;49.382;11.358;2023-07-20T03:17:28;96398.06;;;16.32;100.00
68197;BME280;55019;49.382;11.358;2023-07-20T03:19:54;96404.09;;;16.52;100.00
68197;BME280;55019;49.382;11.358;2023-07-20T03:22:21;96407.09;;;16.56;100.00
68197;BME280;55019;49.382;11.358;2023-07-20T03:24:47;96407.69;;;16.58;100.00
68197;BME280;55019;49.382;11.358;2023-07-20T03:27:13;96404.53;;;16.36;100.00
68197;BME280;55019;49.382;11.358;2023-07-20T03:29:39;96403.88;;;16.54;100.00
68197;BME280;55019;49.382;11.358;2023-07-20T03:32:05;96411.28;;;16.70;100.00
68197;BME280;55019;49.382;11.358;2023-07-20T03:34:31;96417.75;;;16.61;100.00
68197;BME280;55019;49.382;11.358;2023-07-20T03:36:57;96414.31;;;16.67;100.00
68197;BME280;55019;49.382;11.358;2023-07-20T03:39:22;96412.50;;;16.74;100.00
68197;BME280;55019;49.382;11.358;2023-07-20T03:41:48;96416.06;;;16.79;100.00
68197;BME280;55019;49.382;11.358;2023-07-20T03:44:14;96418.91;;;16.78;100.00
68197;BME280;55019;49.382;11.358;2023-07-20T03:46:39;96418.06;;;16.84;100.00
68197;BME280;55019;49.382;11.358;2023-07-20T03:49:05;96424.34;;;16.70;100.00
68197;BME280;55019;49.382;11.358;2023-07-20T03:51:32;96426.31;;;16.81;100.00
68197;BME280;55019;49.382;11.358;2023-07-20T03:53:58;96428.16;;;16.67;100.00
68197;BME280;55019;49.382;11.358;2023-07-20T03:56:23;96424.94;;;16.72;100.00
68197;BME280;55019;49.382;11.358;2023-07-20T03:58:50;96422.84;;;17.00;100.00
68197;BME280;55019;49.382;11.358;2023-07-20T04:01:16;96426.63;;;17.04;100.00
68197;BME280;55019;49.382;11.358;2023-07-20T04:03:42;96417.25;;;16.90;100.00
68197;BME280;55019;49.382;11.358;2023-07-20T04:06:08;96427.34;;;16.67;100.00
68197;BME280;55019;49.382;11.358;2023-07-20T04:08:35;96433.31;;;16.80;100.00
68197;BME280;55019;49.382;11.358;2023-07-20T04:11:02;96430.72;;;16.87;100.00
68197;BME280;55019;49.382;11.358;2023-07-20T04:13:27;96426.69;;;16.91;100.00
68197;BME280;55019;49.382;11.358;2023-07-20T04:15:54;96440.13;;;16.94;100.00
68197;BME280;55019;49.382;11.358;2023-07-20T04:18:20;96434.91;;;16.94;100.00
68197;BME280;55019;49.382;11.358;2023-07-20T04:20:46;96441.75;;;16.95;100.00
68197;BME280;55019;49.382;11.358;2023-07-20T04:23:12;96444.50;;;17.07;100.00
68197;BME280;55019;49.382;11.358;2023-07-20T04:25:41;96450.13;;;17.04;100.00
68197;BME280;55019;49.382;11.358;2023-07-20T04:28:08;96446.75;;;16.97;100.00
68197;BME280;55019;49.382;11.358;2023-07-20T04:30:36;96462.94;;;17.18;100.00
68197;BME280;55019;49.382;11.358;2023-07-20T04:33:04;96453.69;;;17.22;100.00
68197;BME280;55019;49.382;11.358;2023-07-20T04:38:17;96460.09;;;17.26;100.00
68197;BME280;55019;49.382;11.358;2023-07-20T04:40:45;96459.72;;;17.16;100.00
68197;BME280;55019;49.382;11.358;2023-07-20T04:43:12;96460.09;;;17.33;100.00
68197;BME280;55019;49.382;11.358;2023-07-20T04:45:38;96452.69;;;17.36;100.00
68197;BME280;55019;49.382;11.358;2023-07-20T04:48:08;96450.97;;;17.54;100.00
68197;BME280;55019;49.382;11.358;2023-07-20T04:50:35;96461.63;;;17.53;100.00
68197;BME280;55019;49.382;11.358;2023-07-20T04:53:01;96457.25;;;17.41;100.00
68197;BME280;55019;49.382;11.358;2023-07-20T04:55:28;96458.00;;;17.54;100.00
68197;BME280;55019;49.382;11.358;2023-07-20T04:57:54;96466.22;;;17.57;100.00
68197;BME280;55019;49.382;11.358;2023-07-20T05:00:21;96468.81;;;17.64;100.00
68197;BME280;55019;49.382;11.358;2023-07-20T05:02:47;96459.50;;;17.37;100.00
68197;BME280;55019;49.382;11.358;2023-07-20T05:05:15;96467.47;;;17.48;100.00
68197;BME280;55019;49.382;11.358;2023-07-20T05:07:40;96473.75;;;17.35;100.00
68197;BME280;55019;49.382;11.358;2023-07-20T05:10:07;96469.13;;;17.30;100.00
68197;BME280;55019;49.382;11.358;2023-07-20T05:12:33;96478.56;;;17.44;100.00
68197;BME280;55019;49.382;11.358;2023-07-20T05:14:58;96477.25;;;17.59;100.00
68197;BME280;55019;49.382;11.358;2023-07-20T05:17:24;96471.22;;;17.65;100.00
68197;BME280;55019;49.382;11.358;2023-07-20T05:19:51;96479.91;;;17.90;100.00
68197;BME280;55019;49.382;11.358;2023-07-20T05:22:17;96475.88;;;17.94;100.00
68197;BME280;55019;49.382;11.358;2023-07-20T05:24:43;96473.34;;;18.12;100.00
68197;BME280;55019;49.382;11.358;2023-07-20T05:27:08;96471.47;;;17.88;100.00
68197;BME280;55019;49.382;11.358;2023-07-20T05:29:34;96477.78;;;18.05;100.00
68197;BME280;55019;49.382;11.358;2023-07-20T05:32:00;96481.78;;;18.14;99.01
68197;BME280;55019;49.382;11.358;2023-07-20T05:34:25;96481.34;;;18.17;97.51
68197;BME280;55019;49.382;11.358;2023-07-20T05:36:51;96471.22;;;17.96;94.67
68197;BME280;55019;49.382;11.358;2023-07-20T05:39:17;96478.16;;;18.15;95.19
68197;BME280;55019;49.382;11.358;2023-07-20T05:41:43;96474.06;;;18.26;95.78
68197;BME280;55019;49.382;11.358;2023-07-20T05:44:09;96475.28;;;18.23;93.96
68197;BME280;55019;49.382;11.358;2023-07-20T05:46:34;96479.84;;;18.34;94.99
68197;BME280;55019;49.382;11.358;2023-07-20T05:49:00;96479.16;;;18.45;94.24
68197;BME280;55019;49.382;11.358;2023-07-20T05:51:27;96483.09;;;18.54;94.38
68197;BME280;55019;49.382;11.358;2023-07-20T05:53:53;96478.41;;;18.63;93.96
68197;BME280;55019;49.382;11.358;2023-07-20T05:56:18;96483.25;;;18.35;93.17
68197;BME280;55019;49.382;11.358;2023-07-20T05:58:44;96479.88;;;18.52;90.42
68197;BME280;55019;49.382;11.358;2023-07-20T06:01:10;96489.41;;;18.71;90.12
68197;BME280;55019;49.382;11.358;2023-07-20T06:03:36;96494.47;;;18.91;87.07
68197;BME280;55019;49.382;11.358;2023-07-20T06:06:03;96483.59;;;18.87;84.24
68197;BME280;55019;49.382;11.358;2023-07-20T06:08:33;96487.84;;;19.06;83.81
68197;BME280;55019;49.382;11.358;2023-07-20T06:10:59;96492.28;;;19.05;80.74
68197;BME280;55019;49.382;11.358;2023-07-20T06:13:25;96492.34;;;18.99;81.05
68197;BME280;55019;49.382;11.358;2023-07-20T06:15:51;96489.22;;;19.08;79.80
68197;BME280;55019;49.382;11.358;2023-07-20T06:18:17;96492.78;;;18.96;78.71
68197;BME280;55019;49.382;11.358;2023-07-20T06:20:48;96490.81;;;18.92;81.03
68197;BME280;55019;49.382;11.358;2023-07-20T06:23:14;96489.44;;;18.89;78.33
68197;BME280;55019;49.382;11.358;2023-07-20T06:25:40;96490.59;;;18.93;78.72
68197;BME280;55019;49.382;11.358;2023-07-20T06:28:05;96493.44;;;19.16;76.69
68197;BME280;55019;49.382;11.358;2023-07-20T06:30:33;96496.47;;;19.31;75.47
68197;BME280;55019;49.382;11.358;2023-07-20T06:32:59;96494.59;;;19.20;76.44
68197;BME280;55019;49.382;11.358;2023-07-20T06:35:25;96495.06;;;19.10;76.59
68197;BME280;55019;49.382;11.358;2023-07-20T06:37:52;96501.59;;;19.01;77.29
68197;BME280;55019;49.382;11.358;2023-07-20T06:40:17;96501.22;;;18.98;78.32
68197;BME280;55019;49.382;11.358;2023-07-20T06:42:43;96495.09;;;19.04;77.08
68197;BME280;55019;49.382;11.358;2023-07-20T06:45:09;96501.50;;;18.90;77.22
68197;BME280;55019;49.382;11.358;2023-07-20T06:47:38;96498.59;;;18.98;76.89
68197;BME280;55019;49.382;11.358;2023-07-20T06:50:04;96505.22;;;19.25;77.15
68197;BME280;55019;49.382;11.358;2023-07-20T06:52:30;96498.88;;;19.08;76.38
68197;BME280;55019;49.382;11.358;2023-07-20T06:54:55;96507.59;;;19.26;77.09
68197;BME280;55019;49.382;11.358;2023-07-20T06:57:21;96499.91;;;19.07;74.09
68197;BME280;55019;49.382;11.358;2023-07-20T06:59:47;96498.06;;;19.32;74.36
68197;BME280;55019;49.382;11.358;2023-07-20T07:02:13;96498.78;;;19.39;74.55
68197;BME280;55019;49.382;11.358;2023-07-20T07:04:39;96504.53;;;19.29;73.27
68197;BME280;55019;49.382;11.358;2023-07-20T07:07:05;96505.94;;;19.32;72.76
68197;BME280;55019;49.382;11.358;2023-07-20T07:09:31;96509.44;;;19.26;73.81
68197;BME280;55019;49.382;11.358;2023-07-20T07:11:57;96510.19;;;19.08;75.68
68197;BME280;55019;49.382;11.358;2023-07-20T07:14:22;96505.53;;;19.10;75.57
68197;BME280;55019;49.382;11.358;2023-07-20T07:16:48;96503.59;;;19.42;74.56
68197;BME280;55019;49.382;11.358;2023-07-20T07:19:14;96495.63;;;19.66;74.18
68197;BME280;55019;49.382;11.358;2023-07-20T07:21:39;96498.06;;;19.97;73.84
68197;BME280;55019;49.382;11.358;2023-07-20T07:24:05;96500.28;;;20.12;70.86
68197;BME280;55019;49.382;11.358;2023-07-20T07:26:32;96490.00;;;20.62;71.06
68197;BME280;55019;49.382;11.358;2023-07-20T07:28:58;96488.13;;;20.92;67.10
68197;BME280;55019;49.382;11.358;2023-07-20T07:31:29;96487.41;;;21.31;67.94
68197;BME280;55019;49.382;11.358;2023-07-20T07:33:56;96492.56;;;21.77;66.68
68197;BME280;55019;49.382;11.358;2023-07-20T07:36:21;96498.06;;;21.64;64.23
68197;BME280;55019;49.382;11.358;2023-07-20T07:38:47;96494.09;;;21.62;61.09
68197;BME280;55019;49.382;11.358;2023-07-20T07:41:13;96493.44;;;21.43;60.24
68197;BME280;55019;49.382;11.358;2023-07-20T07:43:39;96486.66;;;21.47;58.95
68197;BME280;55019;49.382;11.358;2023-07-20T07:46:05;96486.28;;;21.78;57.48
68197;BME280;55019;49.382;11.358;2023-07-20T07:48:30;96504.09;;;21.25;57.82
68197;BME280;55019;49.382;11.358;2023-07-20T07:50:56;96491.31;;;20.94;59.75
68197;BME280;55019;49.382;11.358;2023-07-20T07:53:22;96496.22;;;20.91;60.94
68197;BME280;55019;49.382;11.358;2023-07-20T07:55:48;96501.81;;;20.94;60.79
68197;BME280;55019;49.382;11.358;2023-07-20T07:58:14;96499.88;;;20.90;60.52
68197;BME280;55019;49.382;11.358;2023-07-20T08:00:39;96499.84;;;20.67;63.66
68197;BME280;55019;49.382;11.358;2023-07-20T08:03:08;96507.16;;;21.34;58.09
68197;BME280;55019;49.382;11.358;2023-07-20T08:05:34;96497.06;;;21.54;55.66
68197;BME280;55019;49.382;11.358;2023-07-20T08:08:01;96492.63;;;22.10;56.20
68197;BME280;55019;49.382;11.358;2023-07-20T08:10:27;96508.81;;;22.30;53.30
68197;BME280;55019;49.382;11.358;2023-07-20T08:12:53;96504.78;;;21.83;54.28
68197;BME280;55019;49.382;11.358;2023-07-20T08:15:18;96509.00;;;21.22;56.77
68197;BME280;55019;49.382;11.358;2023-07-20T08:17:44;96508.06;;;20.59;59.54
68197;BME280;55019;49.382;11.358;2023-07-20T08:20:13;96512.94;;;20.55;60.17
68197;BME280;55019;49.382;11.358;2023-07-20T08:22:39;96510.13;;;20.16;61.29
68197;BME280;55019;49.382;11.358;2023-07-20T08:25:06;96500.88;;;19.66;63.60
68197;BME280;55019;49.382;11.358;2023-07-20T08:27:32;96506.59;;;19.93;61.85
68197;BME280;55019;49.382;11.358;2023-07-20T08:29:58;96505.00;;;20.73;61.08
68197;BME280;55019;49.382;11.358;2023-07-20T08:32:23;96507.59;;;21.93;57.57
68197;BME280;55019;49.382;11.358;2023-07-20T08:34:49;96499.97;;;21.29;53.34
68197;BME280;55019;49.382;11.358;2023-07-20T08:37:14;96497.13;;;20.73;55.18
68197;BME280;55019;49.382;11.358;2023-07-20T08:39:40;96498.41;;;19.71;58.67
68197;BME280;55019;49.382;11.358;2023-07-20T08:42:06;96519.88;;;19.62;59.56
68197;BME280;55019;49.382;11.358;2023-07-20T08:44:33;96518.28;;;19.61;61.47
68197;BME280;55019;49.382;11.358;2023-07-20T08:47:00;96517.72;;;20.36;61.63
68197;BME280;55019;49.382;11.358;2023-07-20T08:49:31;96511.38;;;21.35;55.07
68197;BME280;55019;49.382;11.358;2023-07-20T08:51:57;96509.00;;;22.40;52.87
68197;BME280;55019;49.382;11.358;2023-07-20T08:54:28;96507.09;;;22.85;48.10
68197;BME280;55019;49.382;11.358;2023-07-20T08:56:57;96511.66;;;23.65;47.71
68197;BME280;55019;49.382;11.358;2023-07-20T08:59:24;96509.66;;;24.20;45.24
68197;BME280;55019;49.382;11.358;2023-07-20T09:01:51;96513.31;;;23.49;42.58
68197;BME280;55019;49.382;11.358;2023-07-20T09:04:19;96500.75;;;23.19;43.90
68197;BME280;55019;49.382;11.358;2023-07-20T09:06:45;96507.88;;;24.25;44.66
68197;BME280;55019;49.382;11.358;2023-07-20T09:09:12;96503.19;;;24.32;41.03
68197;BME280;55019;49.382;11.358;2023-07-20T09:11:37;96503.50;;;23.66;41.78
68197;BME280;55019;49.382;11.358;2023-07-20T09:16:30;96502.16;;;22.39;43.74
68197;BME280;55019;49.382;11.358;2023-07-20T09:18:58;96506.84;;;22.09;44.62
68197;BME280;55019;49.382;11.358;2023-07-20T09:21:29;96508.56;;;21.76;46.16
68197;BME280;55019;49.382;11.358;2023-07-20T09:23:56;96513.25;;;21.74;48.22
68197;BME280;55019;49.382;11.358;2023-07-20T09:26:22;96506.09;;;21.69;46.52
68197;BME280;55019;49.382;11.358;2023-07-20T09:28:50;96505.63;;;22.28;47.90
68197;BME280;55019;49.382;11.358;2023-07-20T09:31:18;96505.59;;;22.89;47.03
68197;BME280;55019;49.382;11.358;2023-07-20T09:33:45;96498.91;;;23.36;45.61
68197;BME280;55019;49.382;11.358;2023-07-20T09:36:11;96497.16;;;23.67;43.41
68197;BME280;55019;49.382;11.358;2023-07-20T09:38:37;96497.72;;;24.70;42.00
68197;BME280;55019;49.382;11.358;2023-07-20T09:41:05;96499.19;;;24.88;40.65
68197;BME280;55019;49.382;11.358;2023-07-20T09:43:34;96496.31;;;24.31;40.88
68197;BME280;55019;49.382;11.358;2023-07-20T09:46:00;96509.09;;;23.48;41.64
68197;BME280;55019;49.382;11.358;2023-07-20T09:48:26;96510.44;;;22.80;43.17
68197;BME280;55019;49.382;11.358;2023-07-20T09:50:53;96501.09;;;22.40;43.56
68197;BME280;55019;49.382;11.358;2023-07-20T09:53:19;96503.16;;;22.10;44.62
68197;BME280;55019;49.382;11.358;2023-07-20T09:55:49;96503.28;;;22.59;43.81
68197;BME280;55019;49.382;11.358;2023-07-20T09:58:25;96502.03;;;23.54;43.26
68197;BME280;55019;49.382;11.358;2023-07-20T10:00:51;96493.28;;;24.76;40.78
68197;BME280;55019;49.382;11.358;2023-07-20T10:03:22;96486.34;;;25.01;38.11
68197;BME280;55019;49.382;11.358;2023-07-20T10:05:54;96495.03;;;23.43;39.90
68197;BME280;55019;49.382;11.358;2023-07-20T10:08:25;96496.72;;;23.11;42.06
68197;BME280;55019;49.382;11.358;2023-07-20T10:10:51;96502.78;;;23.12;42.27
68197;BME280;55019;49.382;11.358;2023-07-20T10:13:18;96496.38;;;22.91;41.73
68197;BME280;55019;49.382;11.358;2023-07-20T10:15:50;96498.31;;;22.96;41.67
68197;BME280;55019;49.382;11.358;2023-07-20T10:18:28;96494.50;;;22.70;40.52
68197;BME280;55019;49.382;11.358;2023-07-20T10:20:55;96487.75;;;23.29;39.61
68197;BME280;55019;49.382;11.358;2023-07-20T10:23:22;96487.00;;;23.54;38.71
68197;BME280;55019;49.382;11.358;2023-07-20T10:25:49;96479.22;;;23.86;38.16
68197;BME280;55019;49.382;11.358;2023-07-20T10:28:16;96484.47;;;25.38;38.89
68197;BME280;55019;49.382;11.358;2023-07-20T10:30:42;96485.81;;;26.12;37.33
68197;BME280;55019;49.382;11.358;2023-07-20T10:33:08;96486.31;;;26.04;36.09
68197;BME280;55019;49.382;11.358;2023-07-20T10:35:57;96473.78;;;25.79;37.41
68197;BME280;55019;49.382;11.358;2023-07-20T10:41:20;96483.38;;;25.34;35.73
68197;BME280;55019;49.382;11.358;2023-07-20T10:43:48;96484.66;;;24.85;34.24
68197;BME280;55019;49.382;11.358;2023-07-20T10:46:14;96490.34;;;24.46;36.22
68197;BME280;55019;49.382;11.358;2023-07-20T10:48:59;96485.66;;;23.52;37.25
68197;BME280;55019;49.382;11.358;2023-07-20T10:51:26;96484.88;;;23.14;40.27
68197;BME280;55019;49.382;11.358;2023-07-20T10:53:52;96490.19;;;23.35;39.47
68197;BME280;55019;49.382;11.358;2023-07-20T10:56:22;96481.09;;;22.72;39.88
68197;BME280;55019;49.382;11.358;2023-07-20T10:58:48;96489.44;;;23.02;40.55
68197;BME280;55019;49.382;11.358;2023-07-20T11:01:17;96481.97;;;23.74;39.15
68197;BME280;55019;49.382;11.358;2023-07-20T11:03:43;96472.34;;;25.01;37.26
68197;BME280;55019;49.382;11.358;2023-07-20T11:09:08;96460.72;;;24.70;36.00
68197;BME280;55019;49.382;11.358;2023-07-20T11:11:39;96459.66;;;24.66;35.26
68197;BME280;55019;49.382;11.358;2023-07-20T11:14:07;96459.59;;;24.03;37.19
68197;BME280;55019;49.382;11.358;2023-07-20T11:19:03;96469.22;;;24.14;39.66
68197;BME280;55019;49.382;11.358;2023-07-20T11:21:34;96456.81;;;24.41;37.00
68197;BME280;55019;49.382;11.358;2023-07-20T11:24:03;96460.88;;;25.26;36.97
68197;BME280;55019;49.382;11.358;2023-07-20T11:26:29;96450.19;;;25.73;36.00
68197;BME280;55019;49.382;11.358;2023-07-20T11:28:54;96446.34;;;26.10;34.24
68197;BME280;55019;49.382;11.358;2023-07-20T11:31:20;96436.53;;;27.00;33.79
68197;BME280;55019;49.382;11.358;2023-07-20T11:33:46;96443.03;;;28.06;32.25
68197;BME280;55019;49.382;11.358;2023-07-20T11:36:12;96434.13;;;27.92;29.56
68197;BME280;55019;49.382;11.358;2023-07-20T11:38:41;96437.63;;;26.45;30.78
68197;BME280;55019;49.382;11.358;2023-07-20T11:41:08;96428.88;;;26.19;32.85
68197;BME280;55019;49.382;11.358;2023-07-20T11:43:34;96431.78;;;26.23;30.67
68197;BME280;55019;49.382;11.358;2023-07-20T11:45:59;96436.00;;;25.84;30.38
68197;BME280;55019;49.382;11.358;2023-07-20T11:48:26;96442.06;;;25.94;30.35
68197;BME280;55019;49.382;11.358;2023-07-20T11:50:51;96436.56;;;26.90;31.01
68197;BME280;55019;49.382;11.358;2023-07-20T11:53:18;96427.19;;;27.33;29.76
68197;BME280;55019;49.382;11.358;2023-07-20T11:55:45;96430.97;;;25.97;30.39
68197;BME280;55019;49.382;11.358;2023-07-20T11:58:11;96432.84;;;26.12;30.05
68197;BME280;55019;49.382;11.358;2023-07-20T12:00:37;96431.25;;;26.11;30.98
68197;BME280;55019;49.382;11.358;2023-07-20T12:03:05;96428.66;;;26.60;29.73
68197;BME280;55019;49.382;11.358;2023-07-20T12:05:38;96430.25;;;26.52;30.28
68197;BME280;55019;49.382;11.358;2023-07-20T12:08:04;96408.97;;;27.11;28.95
68197;BME280;55019;49.382;11.358;2023-07-20T12:10:29;96415.53;;;27.29;28.67
68197;BME280;55019;49.382;11.358;2023-07-20T12:13:01;96411.63;;;27.11;28.44
68197;BME280;55019;49.382;11.358;2023-07-20T12:15:30;96406.78;;;27.23;28.56
68197;BME280;55019;49.382;11.358;2023-07-20T12:18:01;96410.41;;;27.47;29.69
68197;BME280;55019;49.382;11.358;2023-07-20T12:20:36;96398.75;;;27.48;29.63
68197;BME280;55019;49.382;11.358;2023-07-20T12:23:11;96408.44;;;27.09;29.73
68197;BME280;55019;49.382;11.358;2023-07-20T12:25:46;96398.94;;;26.09;30.08
68197;BME280;55019;49.382;11.358;2023-07-20T12:28:14;96393.16;;;26.57;30.36
68197;BME280;55019;49.382;11.358;2023-07-20T12:30:41;96384.84;;;27.08;28.33
68197;BME280;55019;49.382;11.358;2023-07-20T12:33:08;96385.72;;;26.58;29.22
68197;BME280;55019;49.382;11.358;2023-07-20T12:35:34;96390.66;;;27.00;29.80
68197;BME280;55019;49.382;11.358;2023-07-20T12:38:00;96397.38;;;26.58;29.03
68197;BME280;55019;49.382;11.358;2023-07-20T12:40:26;96397.88;;;26.69;31.83
68197;BME280;55019;49.382;11.358;2023-07-20T12:42:52;96393.03;;;27.06;29.04
68197;BME280;55019;49.382;11.358;2023-07-20T12:45:18;96384.56;;;27.68;27.13
68197;BME280;55019;49.382;11.358;2023-07-20T12:47:43;96379.06;;;28.41;26.65
68197;BME280;55019;49.382;11.358;2023-07-20T12:50:12;96379.66;;;28.33;26.55
68197;BME280;55019;49.382;11.358;2023-07-20T12:52:39;96378.03;;;28.65;25.52
68197;BME280;55019;49.382;11.358;2023-07-20T12:55:09;96370.88;;;28.61;24.62
68197;BME280;55019;49.382;11.358;2023-07-20T12:57:35;96377.50;;;27.97;25.42
68197;BME280;55019;49.382;11.358;2023-07-20T13:00:03;96380.38;;;26.73;25.79
68197;BME280;55019;49.382;11.358;2023-07-20T13:02:31;96385.19;;;26.61;26.90
68197;BME280;55019;49.382;11.358;2023-07-20T13:04:57;96376.19;;;27.46;27.33